EDDR/SCN METAR and TAF weather

Enter ICAO airport designator
Station Type Date Time Source
EDDR METAR 2021/09/23 23:50 UTC NOAA

EDDR 232350Z AUTO 27002KT //// R27/P2000N // ///////// 10/08 Q1020


Station Type Date Time Source
EDDR Decoded METAR 2021/09/23 23:50 UTC NOAA

Saarbruecken / Ensheim, Germany (EDDR) 49-13N 007-07E 320M
Sep 23, 2021 - 07:50 PM EDT / 2021.09.23 2350 UTC
Wind: from the W (270 degrees) at 2 MPH (2 KT):0
Temperature: 50 F (10 C)
Dew Point: 46 F (8 C)
Relative Humidity: 87%
Pressure (altimeter): 30.12 in. Hg (1020 hPa)
ob: EDDR 232350Z AUTO 27002KT //// R27/P2000N // ///////// 10/08 Q1020
cycle: 0

Station Type Date Time Source
EDDR TAF 2021/09/23 18:27 UTC NOAA

TAF EDDR 231700Z 2318/2418 27008KT CAVOK
BECMG 2321/2324 VRB03KT PROB40
TEMPO 2402/2407 1000 BCFG
BECMG 2407/2411 25007KT

Example: see airport list